sensor_id;sensor_type;location;lat;lon;timestamp;temperature;humidity
20845;DHT22;10583;49.084;8.646;2023-02-10T00:01:34;-3.40;99.90
20845;DHT22;10583;49.084;8.646;2023-02-10T00:04:02;-3.50;99.90
20845;DHT22;10583;49.084;8.646;2023-02-10T00:06:29;-3.40;99.90
20845;DHT22;10583;49.084;8.646;2023-02-10T00:08:58;-3.40;99.90
20845;DHT22;10583;49.084;8.646;2023-02-10T00:11:26;-3.40;99.90
20845;DHT22;10583;49.084;8.646;2023-02-10T00:14:08;-3.50;99.90
20845;DHT22;10583;49.084;8.646;2023-02-10T00:16:35;-3.60;99.90
20845;DHT22;10583;49.084;8.646;2023-02-10T00:19:03;-3.70;99.90
20845;DHT22;10583;49.084;8.646;2023-02-10T00:21:30;-3.70;99.90
20845;DHT22;10583;49.084;8.646;2023-02-10T00:23:56;-3.70;99.90
20845;DHT22;10583;49.084;8.646;2023-02-10T00:26:23;-3.80;99.90
20845;DHT22;10583;49.084;8.646;2023-02-10T00:28:51;-3.90;99.90
20845;DHT22;10583;49.084;8.646;2023-02-10T00:31:18;-3.90;99.90
20845;DHT22;10583;49.084;8.646;2023-02-10T00:33:46;-4.00;99.90
20845;DHT22;10583;49.084;8.646;2023-02-10T00:36:15;-4.00;99.90
20845;DHT22;10583;49.084;8.646;2023-02-10T00:38:42;-4.10;99.90
20845;DHT22;10583;49.084;8.646;2023-02-10T00:41:11;-4.10;99.90
20845;DHT22;10583;49.084;8.646;2023-02-10T00:43:38;-4.10;99.90
20845;DHT22;10583;49.084;8.646;2023-02-10T00:46:06;-4.10;99.90
20845;DHT22;10583;49.084;8.646;2023-02-10T00:48:32;-4.20;99.90
20845;DHT22;10583;49.084;8.646;2023-02-10T00:50:59;-4.30;99.90
20845;DHT22;10583;49.084;8.646;2023-02-10T00:53:27;-4.40;99.90
20845;DHT22;10583;49.084;8.646;2023-02-10T00:55:54;-4.40;99.90
20845;DHT22;10583;49.084;8.646;2023-02-10T00:58:21;-4.40;99.90
20845;DHT22;10583;49.084;8.646;2023-02-10T01:00:48;-4.50;99.90
20845;DHT22;10583;49.084;8.646;2023-02-10T01:03:15;-4.50;99.90
20845;DHT22;10583;49.084;8.646;2023-02-10T01:05:42;-4.50;99.90
20845;DHT22;10583;49.084;8.646;2023-02-10T01:08:10;-4.40;99.90
20845;DHT22;10583;49.084;8.646;2023-02-10T01:10:38;-4.30;99.90
20845;DHT22;10583;49.084;8.646;2023-02-10T01:13:07;-4.30;99.90
20845;DHT22;10583;49.084;8.646;2023-02-10T01:15:33;-4.30;99.90
20845;DHT22;10583;49.084;8.646;2023-02-10T01:18:00;-4.40;99.90
20845;DHT22;10583;49.084;8.646;2023-02-10T01:20:27;-4.40;99.90
20845;DHT22;10583;49.084;8.646;2023-02-10T01:22:54;-4.50;99.90
20845;DHT22;10583;49.084;8.646;2023-02-10T01:25:21;-4.40;99.90
20845;DHT22;10583;49.084;8.646;2023-02-10T01:27:50;-4.40;99.90
20845;DHT22;10583;49.084;8.646;2023-02-10T01:30:17;-4.40;99.90
20845;DHT22;10583;49.084;8.646;2023-02-10T01:32:43;-4.50;99.90
20845;DHT22;10583;49.084;8.646;2023-02-10T01:35:10;-4.50;99.90
20845;DHT22;10583;49.084;8.646;2023-02-10T01:37:36;-4.50;99.90
20845;DHT22;10583;49.084;8.646;2023-02-10T01:40:04;-4.50;99.90
20845;DHT22;10583;49.084;8.646;2023-02-10T01:42:31;-4.50;99.90
20845;DHT22;10583;49.084;8.646;2023-02-10T01:45:19;-4.60;99.90
20845;DHT22;10583;49.084;8.646;2023-02-10T01:47:47;-4.60;99.90
20845;DHT22;10583;49.084;8.646;2023-02-10T01:50:15;-4.60;99.90
20845;DHT22;10583;49.084;8.646;2023-02-10T01:52:42;-4.60;99.90
20845;DHT22;10583;49.084;8.646;2023-02-10T01:55:11;-4.60;99.90
20845;DHT22;10583;49.084;8.646;2023-02-10T01:57:40;-4.70;99.90
20845;DHT22;10583;49.084;8.646;2023-02-10T02:00:09;-4.70;99.90
20845;DHT22;10583;49.084;8.646;2023-02-10T02:02:37;-4.70;99.90
20845;DHT22;10583;49.084;8.646;2023-02-10T02:05:06;-4.80;99.90
20845;DHT22;10583;49.084;8.646;2023-02-10T02:07:35;-4.80;99.90
20845;DHT22;10583;49.084;8.646;2023-02-10T02:10:05;-4.70;99.90
20845;DHT22;10583;49.084;8.646;2023-02-10T02:12:41;-4.70;99.90
20845;DHT22;10583;49.084;8.646;2023-02-10T02:15:14;-4.60;99.90
20845;DHT22;10583;49.084;8.646;2023-02-10T02:17:50;-4.60;99.90
20845;DHT22;10583;49.084;8.646;2023-02-10T02:20:35;-4.60;99.90
20845;DHT22;10583;49.084;8.646;2023-02-10T02:23:28;-4.50;99.90
20845;DHT22;10583;49.084;8.646;2023-02-10T02:26:26;-4.50;99.90
20845;DHT22;10583;49.084;8.646;2023-02-10T02:29:17;-4.40;99.90
20845;DHT22;10583;49.084;8.646;2023-02-10T02:31:56;-4.40;99.90
20845;DHT22;10583;49.084;8.646;2023-02-10T02:34:30;-4.30;99.90
20845;DHT22;10583;49.084;8.646;2023-02-10T02:37:02;-4.30;99.90
20845;DHT22;10583;49.084;8.646;2023-02-10T02:39:31;-4.30;99.90
20845;DHT22;10583;49.084;8.646;2023-02-10T02:44:41;-4.30;99.90
20845;DHT22;10583;49.084;8.646;2023-02-10T02:47:14;-4.40;99.90
20845;DHT22;10583;49.084;8.646;2023-02-10T02:49:49;-4.40;99.90
20845;DHT22;10583;49.084;8.646;2023-02-10T02:52:23;-4.30;99.90
20845;DHT22;10583;49.084;8.646;2023-02-10T02:54:56;-4.30;99.90
20845;DHT22;10583;49.084;8.646;2023-02-10T02:57:28;-4.30;99.90
20845;DHT22;10583;49.084;8.646;2023-02-10T03:00:03;-4.30;99.90
20845;DHT22;10583;49.084;8.646;2023-02-10T03:02:34;-4.20;99.90
20845;DHT22;10583;49.084;8.646;2023-02-10T03:05:02;-4.30;99.90
20845;DHT22;10583;49.084;8.646;2023-02-10T03:07:29;-4.30;99.90
20845;DHT22;10583;49.084;8.646;2023-02-10T03:09:55;-4.30;99.90
20845;DHT22;10583;49.084;8.646;2023-02-10T03:12:22;-4.30;99.90
20845;DHT22;10583;49.084;8.646;2023-02-10T03:14:49;-4.30;99.90
20845;DHT22;10583;49.084;8.646;2023-02-10T03:17:15;-4.30;99.90
20845;DHT22;10583;49.084;8.646;2023-02-10T03:19:43;-4.30;99.90
20845;DHT22;10583;49.084;8.646;2023-02-10T03:22:10;-4.30;99.90
20845;DHT22;10583;49.084;8.646;2023-02-10T03:24:37;-4.30;99.90
20845;DHT22;10583;49.084;8.646;2023-02-10T03:27:04;-4.40;99.90
20845;DHT22;10583;49.084;8.646;2023-02-10T03:29:31;-4.40;99.90
20845;DHT22;10583;49.084;8.646;2023-02-10T03:31:58;-4.50;99.90
20845;DHT22;10583;49.084;8.646;2023-02-10T03:34:27;-4.50;99.90
20845;DHT22;10583;49.084;8.646;2023-02-10T03:36:55;-4.50;99.90
20845;DHT22;10583;49.084;8.646;2023-02-10T03:39:22;-4.50;99.90
20845;DHT22;10583;49.084;8.646;2023-02-10T03:41:48;-4.60;99.90
20845;DHT22;10583;49.084;8.646;2023-02-10T03:44:15;-4.70;99.90
20845;DHT22;10583;49.084;8.646;2023-02-10T03:46:42;-4.70;99.90
20845;DHT22;10583;49.084;8.646;2023-02-10T03:49:08;-4.60;99.90
20845;DHT22;10583;49.084;8.646;2023-02-10T03:51:35;-4.60;99.90
20845;DHT22;10583;49.084;8.646;2023-02-10T03:54:03;-4.50;99.90
20845;DHT22;10583;49.084;8.646;2023-02-10T03:56:30;-4.50;99.90
20845;DHT22;10583;49.084;8.646;2023-02-10T03:58:59;-4.50;99.90
20845;DHT22;10583;49.084;8.646;2023-02-10T04:01:26;-4.60;99.90
20845;DHT22;10583;49.084;8.646;2023-02-10T04:03:52;-4.60;99.90
20845;DHT22;10583;49.084;8.646;2023-02-10T04:06:19;-4.50;99.90
20845;DHT22;10583;49.084;8.646;2023-02-10T04:08:46;-4.50;99.90
20845;DHT22;10583;49.084;8.646;2023-02-10T04:11:15;-4.40;99.90
20845;DHT22;10583;49.084;8.646;2023-02-10T04:13:41;-4.40;99.90
20845;DHT22;10583;49.084;8.646;2023-02-10T04:16:10;-4.30;99.90
20845;DHT22;10583;49.084;8.646;2023-02-10T04:18:37;-4.30;99.90
20845;DHT22;10583;49.084;8.646;2023-02-10T04:21:05;-4.30;99.90
20845;DHT22;10583;49.084;8.646;2023-02-10T04:23:32;-4.40;99.90
20845;DHT22;10583;49.084;8.646;2023-02-10T04:25:59;-4.40;99.90
20845;DHT22;10583;49.084;8.646;2023-02-10T04:28:27;-4.30;99.90
20845;DHT22;10583;49.084;8.646;2023-02-10T04:30:56;-4.30;99.90
20845;DHT22;10583;49.084;8.646;2023-02-10T04:33:23;-4.40;99.90
20845;DHT22;10583;49.084;8.646;2023-02-10T04:35:51;-4.40;99.90
20845;DHT22;10583;49.084;8.646;2023-02-10T04:38:18;-4.40;99.90
20845;DHT22;10583;49.084;8.646;2023-02-10T04:40:45;-4.50;99.90
20845;DHT22;10583;49.084;8.646;2023-02-10T04:43:12;-4.50;99.90
20845;DHT22;10583;49.084;8.646;2023-02-10T04:45:40;-4.50;99.90
20845;DHT22;10583;49.084;8.646;2023-02-10T04:48:07;-4.50;99.90
20845;DHT22;10583;49.084;8.646;2023-02-10T04:50:35;-4.50;99.90
20845;DHT22;10583;49.084;8.646;2023-02-10T04:53:03;-4.40;99.90
20845;DHT22;10583;49.084;8.646;2023-02-10T04:55:29;-4.40;99.90
20845;DHT22;10583;49.084;8.646;2023-02-10T04:57:56;-4.40;99.90
20845;DHT22;10583;49.084;8.646;2023-02-10T05:00:23;-4.50;99.90
20845;DHT22;10583;49.084;8.646;2023-02-10T05:02:51;-4.50;99.90
20845;DHT22;10583;49.084;8.646;2023-02-10T05:05:18;-4.50;99.90
20845;DHT22;10583;49.084;8.646;2023-02-10T05:07:44;-4.60;99.90
20845;DHT22;10583;49.084;8.646;2023-02-10T05:10:11;-4.70;99.90
20845;DHT22;10583;49.084;8.646;2023-02-10T05:12:38;-4.70;99.90
20845;DHT22;10583;49.084;8.646;2023-02-10T05:15:05;-4.80;99.90
20845;DHT22;10583;49.084;8.646;2023-02-10T05:17:33;-4.80;99.90
20845;DHT22;10583;49.084;8.646;2023-02-10T05:20:01;-4.90;99.90
20845;DHT22;10583;49.084;8.646;2023-02-10T05:22:28;-4.90;99.90
20845;DHT22;10583;49.084;8.646;2023-02-10T05:24:55;-5.00;99.90
20845;DHT22;10583;49.084;8.646;2023-02-10T05:27:22;-5.00;99.90
20845;DHT22;10583;49.084;8.646;2023-02-10T05:29:48;-5.00;99.90
20845;DHT22;10583;49.084;8.646;2023-02-10T05:32:15;-5.00;99.90
20845;DHT22;10583;49.084;8.646;2023-02-10T05:34:42;-5.10;99.90
20845;DHT22;10583;49.084;8.646;2023-02-10T05:37:10;-5.10;99.90
20845;DHT22;10583;49.084;8.646;2023-02-10T05:39:37;-5.10;99.90
20845;DHT22;10583;49.084;8.646;2023-02-10T05:42:04;-5.20;99.90
20845;DHT22;10583;49.084;8.646;2023-02-10T05:44:31;-5.20;99.90
20845;DHT22;10583;49.084;8.646;2023-02-10T05:46:57;-5.20;99.90
20845;DHT22;10583;49.084;8.646;2023-02-10T05:49:24;-5.30;99.90
20845;DHT22;10583;49.084;8.646;2023-02-10T05:51:51;-5.30;99.90
20845;DHT22;10583;49.084;8.646;2023-02-10T05:54:19;-5.20;99.90
20845;DHT22;10583;49.084;8.646;2023-02-10T05:56:46;-5.30;99.90
20845;DHT22;10583;49.084;8.646;2023-02-10T05:59:14;-5.30;99.90
20845;DHT22;10583;49.084;8.646;2023-02-10T06:01:42;-5.30;99.90
20845;DHT22;10583;49.084;8.646;2023-02-10T06:04:08;-5.40;99.90
20845;DHT22;10583;49.084;8.646;2023-02-10T06:06:35;-5.40;99.90
20845;DHT22;10583;49.084;8.646;2023-02-10T06:09:02;-5.40;99.90
20845;DHT22;10583;49.084;8.646;2023-02-10T06:11:30;-5.40;99.90
20845;DHT22;10583;49.084;8.646;2023-02-10T06:13:57;-5.40;99.90
20845;DHT22;10583;49.084;8.646;2023-02-10T06:16:24;-5.50;99.90
20845;DHT22;10583;49.084;8.646;2023-02-10T06:18:50;-5.50;99.90
20845;DHT22;10583;49.084;8.646;2023-02-10T06:21:17;-5.40;99.90
20845;DHT22;10583;49.084;8.646;2023-02-10T06:23:44;-5.40;99.90
20845;DHT22;10583;49.084;8.646;2023-02-10T06:26:11;-5.30;99.90
20845;DHT22;10583;49.084;8.646;2023-02-10T06:28:39;-5.30;99.90
20845;DHT22;10583;49.084;8.646;2023-02-10T06:31:06;-5.30;99.90
20845;DHT22;10583;49.084;8.646;2023-02-10T06:33:34;-5.30;99.90
20845;DHT22;10583;49.084;8.646;2023-02-10T06:36:01;-5.30;99.90
20845;DHT22;10583;49.084;8.646;2023-02-10T06:38:30;-5.30;99.90
20845;DHT22;10583;49.084;8.646;2023-02-10T06:40:57;-5.20;99.90
20845;DHT22;10583;49.084;8.646;2023-02-10T06:43:23;-5.10;99.90
20845;DHT22;10583;49.084;8.646;2023-02-10T06:45:52;-5.00;99.90
20845;DHT22;10583;49.084;8.646;2023-02-10T06:48:18;-5.00;99.90
20845;DHT22;10583;49.084;8.646;2023-02-10T06:50:45;-5.00;99.90
20845;DHT22;10583;49.084;8.646;2023-02-10T06:53:12;-5.00;99.90
20845;DHT22;10583;49.084;8.646;2023-02-10T06:55:38;-5.00;99.90
20845;DHT22;10583;49.084;8.646;2023-02-10T06:58:05;-5.00;99.90
20845;DHT22;10583;49.084;8.646;2023-02-10T07:00:31;-4.90;99.90
20845;DHT22;10583;49.084;8.646;2023-02-10T07:02:59;-4.80;99.90
20845;DHT22;10583;49.084;8.646;2023-02-10T07:05:26;-4.70;99.90
20845;DHT22;10583;49.084;8.646;2023-02-10T07:07:53;-4.70;99.90
20845;DHT22;10583;49.084;8.646;2023-02-10T07:10:20;-4.60;99.90
20845;DHT22;10583;49.084;8.646;2023-02-10T07:12:47;-4.60;99.90
20845;DHT22;10583;49.084;8.646;2023-02-10T07:15:14;-4.60;99.90
20845;DHT22;10583;49.084;8.646;2023-02-10T07:17:42;-4.50;99.90
20845;DHT22;10583;49.084;8.646;2023-02-10T07:20:13;-4.50;99.90
20845;DHT22;10583;49.084;8.646;2023-02-10T07:22:39;-4.50;99.90
20845;DHT22;10583;49.084;8.646;2023-02-10T07:25:06;-4.50;99.90
20845;DHT22;10583;49.084;8.646;2023-02-10T07:27:33;-4.50;99.90
20845;DHT22;10583;49.084;8.646;2023-02-10T07:30:00;-4.50;99.90
20845;DHT22;10583;49.084;8.646;2023-02-10T07:32:27;-4.50;99.90
20845;DHT22;10583;49.084;8.646;2023-02-10T07:34:53;-4.50;99.90
20845;DHT22;10583;49.084;8.646;2023-02-10T07:37:21;-4.50;99.90
20845;DHT22;10583;49.084;8.646;2023-02-10T07:39:49;-4.40;99.90
20845;DHT22;10583;49.084;8.646;2023-02-10T07:42:16;-4.40;99.90
20845;DHT22;10583;49.084;8.646;2023-02-10T07:44:42;-4.30;99.90
20845;DHT22;10583;49.084;8.646;2023-02-10T07:47:09;-4.20;99.90
20845;DHT22;10583;49.084;8.646;2023-02-10T07:49:36;-4.10;99.90
20845;DHT22;10583;49.084;8.646;2023-02-10T07:52:03;-4.00;99.90
20845;DHT22;10583;49.084;8.646;2023-02-10T07:54:31;-4.00;99.90
20845;DHT22;10583;49.084;8.646;2023-02-10T07:56:58;-4.00;99.90
20845;DHT22;10583;49.084;8.646;2023-02-10T07:59:25;-3.90;99.90
20845;DHT22;10583;49.084;8.646;2023-02-10T08:01:51;-3.70;99.90
20845;DHT22;10583;49.084;8.646;2023-02-10T08:04:18;-3.50;99.90
20845;DHT22;10583;49.084;8.646;2023-02-10T08:06:45;-3.30;99.90
20845;DHT22;10583;49.084;8.646;2023-02-10T08:09:11;-3.20;99.90
20845;DHT22;10583;49.084;8.646;2023-02-10T08:11:42;-3.00;99.90
20845;DHT22;10583;49.084;8.646;2023-02-10T08:14:09;-2.80;99.90
20845;DHT22;10583;49.084;8.646;2023-02-10T08:16:36;-2.60;99.90
20845;DHT22;10583;49.084;8.646;2023-02-10T08:19:02;-2.50;99.90
20845;DHT22;10583;49.084;8.646;2023-02-10T08:21:29;-2.40;99.90
20845;DHT22;10583;49.084;8.646;2023-02-10T08:23:56;-2.30;99.90
20845;DHT22;10583;49.084;8.646;2023-02-10T08:26:22;-2.10;99.90
20845;DHT22;10583;49.084;8.646;2023-02-10T08:28:51;-2.00;99.90
20845;DHT22;10583;49.084;8.646;2023-02-10T08:31:20;-1.80;99.90
20845;DHT22;10583;49.084;8.646;2023-02-10T08:33:47;-1.70;99.90
20845;DHT22;10583;49.084;8.646;2023-02-10T08:36:16;-1.60;99.90
20845;DHT22;10583;49.084;8.646;2023-02-10T08:38:44;-1.40;99.90
20845;DHT22;10583;49.084;8.646;2023-02-10T08:41:12;-1.20;99.90
20845;DHT22;10583;49.084;8.646;2023-02-10T08:43:38;-1.10;99.90
20845;DHT22;10583;49.084;8.646;2023-02-10T08:46:07;-1.00;99.90
20845;DHT22;10583;49.084;8.646;2023-02-10T08:48:34;-1.00;99.90
20845;DHT22;10583;49.084;8.646;2023-02-10T08:51:04;-0.90;99.90
20845;DHT22;10583;49.084;8.646;2023-02-10T08:53:31;-0.70;99.90
20845;DHT22;10583;49.084;8.646;2023-02-10T08:56:00;-0.50;99.90
20845;DHT22;10583;49.084;8.646;2023-02-10T08:58:27;-0.40;99.90
20845;DHT22;10583;49.084;8.646;2023-02-10T09:00:54;-0.10;99.90
20845;DHT22;10583;49.084;8.646;2023-02-10T09:03:24;0.00;99.90
20845;DHT22;10583;49.084;8.646;2023-02-10T09:05:52;0.20;99.90
20845;DHT22;10583;49.084;8.646;2023-02-10T09:08:19;0.40;99.90
20845;DHT22;10583;49.084;8.646;2023-02-10T09:10:46;0.70;99.90
20845;DHT22;10583;49.084;8.646;2023-02-10T09:13:13;1.00;99.90
20845;DHT22;10583;49.084;8.646;2023-02-10T09:15:41;1.20;99.90
20845;DHT22;10583;49.084;8.646;2023-02-10T09:18:08;1.40;99.90
20845;DHT22;10583;49.084;8.646;2023-02-10T09:20:37;1.60;99.90
20845;DHT22;10583;49.084;8.646;2023-02-10T09:23:04;1.80;99.90
20845;DHT22;10583;49.084;8.646;2023-02-10T09:25:30;2.00;99.90
20845;DHT22;10583;49.084;8.646;2023-02-10T09:27:57;2.10;99.90
20845;DHT22;10583;49.084;8.646;2023-02-10T09:30:24;2.30;99.90
20845;DHT22;10583;49.084;8.646;2023-02-10T09:32:51;2.50;99.90
20845;DHT22;10583;49.084;8.646;2023-02-10T09:35:18;2.70;99.90
20845;DHT22;10583;49.084;8.646;2023-02-10T09:37:46;2.70;99.90
20845;DHT22;10583;49.084;8.646;2023-02-10T09:40:16;2.90;99.90
20845;DHT22;10583;49.084;8.646;2023-02-10T09:42:56;3.00;99.90
20845;DHT22;10583;49.084;8.646;2023-02-10T09:45:26;3.20;99.90
20845;DHT22;10583;49.084;8.646;2023-02-10T09:48:00;3.40;99.90
20845;DHT22;10583;49.084;8.646;2023-02-10T09:50:42;3.70;99.90
20845;DHT22;10583;49.084;8.646;2023-02-10T09:53:17;4.00;99.90
20845;DHT22;10583;49.084;8.646;2023-02-10T09:55:48;4.20;99.90
20845;DHT22;10583;49.084;8.646;2023-02-10T09:58:23;4.50;99.90
20845;DHT22;10583;49.084;8.646;2023-02-10T10:00:55;4.80;99.90
20845;DHT22;10583;49.084;8.646;2023-02-10T10:03:26;5.10;99.90
20845;DHT22;10583;49.084;8.646;2023-02-10T10:06:04;5.30;99.90
20845;DHT22;10583;49.084;8.646;2023-02-10T10:08:41;5.40;99.90
20845;DHT22;10583;49.084;8.646;2023-02-10T10:11:22;5.40;99.90
20845;DHT22;10583;49.084;8.646;2023-02-10T10:13:49;5.40;99.90
20845;DHT22;10583;49.084;8.646;2023-02-10T10:16:37;5.30;99.90
20845;DHT22;10583;49.084;8.646;2023-02-10T10:19:13;5.00;99.90
20845;DHT22;10583;49.084;8.646;2023-02-10T10:21:47;5.30;99.90
20845;DHT22;10583;49.084;8.646;2023-02-10T10:24:33;5.30;99.90
20845;DHT22;10583;49.084;8.646;2023-02-10T10:27:13;5.30;99.90
20845;DHT22;10583;49.084;8.646;2023-02-10T10:29:48;5.70;99.90
20845;DHT22;10583;49.084;8.646;2023-02-10T10:32:22;6.10;99.90
20845;DHT22;10583;49.084;8.646;2023-02-10T10:34:51;6.50;99.90
20845;DHT22;10583;49.084;8.646;2023-02-10T10:37:20;6.70;99.90
20845;DHT22;10583;49.084;8.646;2023-02-10T10:39:51;6.50;99.90
20845;DHT22;10583;49.084;8.646;2023-02-10T10:42:25;6.10;99.90
20845;DHT22;10583;49.084;8.646;2023-02-10T10:44:55;6.10;99.90
20845;DHT22;10583;49.084;8.646;2023-02-10T10:47:34;6.20;99.90
20845;DHT22;10583;49.084;8.646;2023-02-10T10:50:03;6.50;99.90
20845;DHT22;10583;49.084;8.646;2023-02-10T10:52:32;6.70;99.90
20845;DHT22;10583;49.084;8.646;2023-02-10T10:55:06;7.10;99.90
20845;DHT22;10583;49.084;8.646;2023-02-10T10:57:34;7.00;99.90
20845;DHT22;10583;49.084;8.646;2023-02-10T11:00:06;7.00;99.90
20845;DHT22;10583;49.084;8.646;2023-02-10T11:02:39;7.10;99.90
20845;DHT22;10583;49.084;8.646;2023-02-10T11:05:16;7.20;99.90
20845;DHT22;10583;49.084;8.646;2023-02-10T11:07:47;7.20;99.90
20845;DHT22;10583;49.084;8.646;2023-02-10T11:10:22;7.20;99.90
20845;DHT22;10583;49.084;8.646;2023-02-10T11:12:50;7.20;99.90
20845;DHT22;10583;49.084;8.646;2023-02-10T11:15:30;7.10;99.90
20845;DHT22;10583;49.084;8.646;2023-02-10T11:17:58;7.10;99.90
20845;DHT22;10583;49.084;8.646;2023-02-10T11:20:28;7.40;99.90
20845;DHT22;10583;49.084;8.646;2023-02-10T11:22:57;7.70;99.90
20845;DHT22;10583;49.084;8.646;2023-02-10T11:25:29;7.50;99.90
20845;DHT22;10583;49.084;8.646;2023-02-10T11:27:57;7.50;99.90
20845;DHT22;10583;49.084;8.646;2023-02-10T11:30:26;7.50;99.90
20845;DHT22;10583;49.084;8.646;2023-02-10T11:32:54;7.70;99.90
20845;DHT22;10583;49.084;8.646;2023-02-10T11:35:21;7.40;99.90
20845;DHT22;10583;49.084;8.646;2023-02-10T11:37:53;7.30;99.90
20845;DHT22;10583;49.084;8.646;2023-02-10T11:40:23;7.60;99.90
20845;DHT22;10583;49.084;8.646;2023-02-10T11:42:54;8.00;99.90
20845;DHT22;10583;49.084;8.646;2023-02-10T11:45:24;8.20;99.90
20845;DHT22;10583;49.084;8.646;2023-02-10T11:48:00;8.00;99.90
20845;DHT22;10583;49.084;8.646;2023-02-10T11:50:31;8.10;99.90
20845;DHT22;10583;49.084;8.646;2023-02-10T11:52:59;8.10;99.90
20845;DHT22;10583;49.084;8.646;2023-02-10T11:55:31;8.30;99.90
20845;DHT22;10583;49.084;8.646;2023-02-10T11:58:17;8.60;99.90
20845;DHT22;10583;49.084;8.646;2023-02-10T12:01:08;8.50;99.60
20845;DHT22;10583;49.084;8.646;2023-02-10T12:03:45;8.30;99.90
20845;DHT22;10583;49.084;8.646;2023-02-10T12:06:21;8.40;99.90
20845;DHT22;10583;49.084;8.646;2023-02-10T12:08:55;8.80;99.90
20845;DHT22;10583;49.084;8.646;2023-02-10T12:11:27;8.80;99.10
20845;DHT22;10583;49.084;8.646;2023-02-10T12:14:02;8.70;98.80
20845;DHT22;10583;49.084;8.646;2023-02-10T12:16:39;8.80;98.90
20845;DHT22;10583;49.084;8.646;2023-02-10T12:19:14;8.90;98.70
20845;DHT22;10583;49.084;8.646;2023-02-10T12:21:55;8.70;99.50
20845;DHT22;10583;49.084;8.646;2023-02-10T12:24:38;8.80;97.40
20845;DHT22;10583;49.084;8.646;2023-02-10T12:27:13;8.50;98.60
20845;DHT22;10583;49.084;8.646;2023-02-10T12:29:52;8.60;99.00
20845;DHT22;10583;49.084;8.646;2023-02-10T12:32:28;8.50;98.50
20845;DHT22;10583;49.084;8.646;2023-02-10T12:35:20;8.70;98.70
20845;DHT22;10583;49.084;8.646;2023-02-10T12:37:55;8.90;97.50
20845;DHT22;10583;49.084;8.646;2023-02-10T12:40:28;8.90;98.50
20845;DHT22;10583;49.084;8.646;2023-02-10T12:43:11;9.10;98.00
20845;DHT22;10583;49.084;8.646;2023-02-10T12:45:44;8.90;96.80
20845;DHT22;10583;49.084;8.646;2023-02-10T12:48:24;8.90;97.90
20845;DHT22;10583;49.084;8.646;2023-02-10T12:51:09;9.00;97.20
20845;DHT22;10583;49.084;8.646;2023-02-10T12:53:44;9.00;97.10
20845;DHT22;10583;49.084;8.646;2023-02-10T12:56:17;8.90;97.60
20845;DHT22;10583;49.084;8.646;2023-02-10T12:58:49;8.70;96.90
20845;DHT22;10583;49.084;8.646;2023-02-10T13:01:22;8.50;97.70
20845;DHT22;10583;49.084;8.646;2023-02-10T13:03:54;8.40;97.50
20845;DHT22;10583;49.084;8.646;2023-02-10T13:06:27;8.30;97.00
20845;DHT22;10583;49.084;8.646;2023-02-10T13:09:00;8.50;98.30
20845;DHT22;10583;49.084;8.646;2023-02-10T13:11:34;8.80;97.10
20845;DHT22;10583;49.084;8.646;2023-02-10T13:14:08;9.00;96.80
20845;DHT22;10583;49.084;8.646;2023-02-10T13:16:38;8.70;97.00
20845;DHT22;10583;49.084;8.646;2023-02-10T13:19:13;8.60;97.50
20845;DHT22;10583;49.084;8.646;2023-02-10T13:21:49;8.80;97.90
20845;DHT22;10583;49.084;8.646;2023-02-10T13:24:23;8.80;96.80
20845;DHT22;10583;49.084;8.646;2023-02-10T13:27:02;8.60;96.60
20845;DHT22;10583;49.084;8.646;2023-02-10T13:29:38;8.50;96.60
20845;DHT22;10583;49.084;8.646;2023-02-10T13:32:37;8.60;97.10
20845;DHT22;10583;49.084;8.646;2023-02-10T13:35:13;8.40;96.40
20845;DHT22;10583;49.084;8.646;2023-02-10T13:37:42;8.20;97.40
20845;DHT22;10583;49.084;8.646;2023-02-10T13:40:16;8.10;98.00
20845;DHT22;10583;49.084;8.646;2023-02-10T13:42:49;8.10;98.20
20845;DHT22;10583;49.084;8.646;2023-02-10T13:45:18;8.10;98.20
20845;DHT22;10583;49.084;8.646;2023-02-10T13:47:50;8.00;98.80
20845;DHT22;10583;49.084;8.646;2023-02-10T13:50:22;8.20;98.00
20845;DHT22;10583;49.084;8.646;2023-02-10T13:52:52;8.20;97.50
20845;DHT22;10583;49.084;8.646;2023-02-10T13:55:38;8.00;98.70
20845;DHT22;10583;49.084;8.646;2023-02-10T13:58:24;8.00;98.40
20845;DHT22;10583;49.084;8.646;2023-02-10T14:00:54;8.10;97.70
20845;DHT22;10583;49.084;8.646;2023-02-10T14:03:24;8.10;99.00
20845;DHT22;10583;49.084;8.646;2023-02-10T14:05:54;8.10;98.70
20845;DHT22;10583;49.084;8.646;2023-02-10T14:08:33;8.10;98.60
20845;DHT22;10583;49.084;8.646;2023-02-10T14:11:03;7.80;98.70
20845;DHT22;10583;49.084;8.646;2023-02-10T14:13:32;7.60;98.50
20845;DHT22;10583;49.084;8.646;2023-02-10T14:16:03;7.50;98.70
20845;DHT22;10583;49.084;8.646;2023-02-10T14:18:33;7.70;99.80
20845;DHT22;10583;49.084;8.646;2023-02-10T14:21:04;7.70;98.70
20845;DHT22;10583;49.084;8.646;2023-02-10T14:23:33;7.80;98.40
20845;DHT22;10583;49.084;8.646;2023-02-10T14:26:02;7.80;98.50
20845;DHT22;10583;49.084;8.646;2023-02-10T14:28:32;7.90;99.00
20845;DHT22;10583;49.084;8.646;2023-02-10T14:31:03;8.00;99.50
20845;DHT22;10583;49.084;8.646;2023-02-10T14:33:34;8.10;98.90
20845;DHT22;10583;49.084;8.646;2023-02-10T14:36:03;8.10;98.70
20845;DHT22;10583;49.084;8.646;2023-02-10T14:38:32;8.10;98.80
20845;DHT22;10583;49.084;8.646;2023-02-10T14:41:00;8.10;97.80
20845;DHT22;10583;49.084;8.646;2023-02-10T14:43:30;7.90;98.10
20845;DHT22;10583;49.084;8.646;2023-02-10T14:45:59;7.80;99.00
20845;DHT22;10583;49.084;8.646;2023-02-10T14:48:27;7.70;99.10
20845;DHT22;10583;49.084;8.646;2023-02-10T14:51:19;7.60;99.20
20845;DHT22;10583;49.084;8.646;2023-02-10T14:53:46;7.50;99.60
20845;DHT22;10583;49.084;8.646;2023-02-10T14:56:17;7.50;99.90
20845;DHT22;10583;49.084;8.646;2023-02-10T14:58:44;7.40;99.90
20845;DHT22;10583;49.084;8.646;2023-02-10T15:01:16;7.20;99.90
20845;DHT22;10583;49.084;8.646;2023-02-10T15:03:46;7.20;99.90
20845;DHT22;10583;49.084;8.646;2023-02-10T15:06:16;7.20;99.90
20845;DHT22;10583;49.084;8.646;2023-02-10T15:08:46;7.10;99.90
20845;DHT22;10583;49.084;8.646;2023-02-10T15:11:17;7.10;99.90
20845;DHT22;10583;49.084;8.646;2023-02-10T15:14:11;7.00;99.90
20845;DHT22;10583;49.084;8.646;2023-02-10T15:16:38;6.90;99.90
20845;DHT22;10583;49.084;8.646;2023-02-10T15:19:05;6.70;99.90
20845;DHT22;10583;49.084;8.646;2023-02-10T15:21:35;6.60;99.90
20845;DHT22;10583;49.084;8.646;2023-02-10T15:24:04;6.50;99.90
20845;DHT22;10583;49.084;8.646;2023-02-10T15:26:33;6.40;99.90
20845;DHT22;10583;49.084;8.646;2023-02-10T15:29:08;6.40;99.90
20845;DHT22;10583;49.084;8.646;2023-02-10T15:31:35;6.30;99.90
20845;DHT22;10583;49.084;8.646;2023-02-10T15:34:13;6.20;99.90
20845;DHT22;10583;49.084;8.646;2023-02-10T15:36:47;6.10;99.90
20845;DHT22;10583;49.084;8.646;2023-02-10T15:39:20;5.90;99.90
20845;DHT22;10583;49.084;8.646;2023-02-10T15:41:59;5.90;99.90
20845;DHT22;10583;49.084;8.646;2023-02-10T15:44:28;5.80;99.90
20845;DHT22;10583;49.084;8.646;2023-02-10T15:47:20;5.50;99.90
20845;DHT22;10583;49.084;8.646;2023-02-10T15:49:48;5.40;99.90
20845;DHT22;10583;49.084;8.646;2023-02-10T15:52:21;5.40;99.90
20845;DHT22;10583;49.084;8.646;2023-02-10T15:54:48;5.30;99.90
20845;DHT22;10583;49.084;8.646;2023-02-10T15:57:16;5.20;99.90
20845;DHT22;10583;49.084;8.646;2023-02-10T15:59:44;5.00;99.90